logo tempoitalia

Diretta Meteo Badajoz-Talavera La Real, Spagnalunedì 31 agosto ore 07:00

Mappa
Sereno 15 °C Sereno 24 Ore: T.min 15 T.max 34
Ponente Ovest Km/h 11.1 Punto di rugiada: 13 °C Umidità: 87% Visibilità: 10 Km
Il sole sorge alle: 07:55 Il sole tramonta alle: 20:59
31 Agosto 2026 07:00 tempo osservato: Sereno Sereno 15 87 1019 vento: Nord O 11.1
30 Agosto 2026 21:00 tempo osservato: Sereno Sereno 30 30 1016 vento: Nord O 22.2
30 Agosto 2026 20:30 tempo osservato: Sereno Sereno 31 29 1016 vento: Nord O/NO 24
30 Agosto 2026 20:00 tempo osservato: Sereno Sereno 33 26 1016 vento: Nord O 22.2
30 Agosto 2026 19:30 tempo osservato: Sereno Sereno 33 26 1016 vento: Nord O 18.5
30 Agosto 2026 19:00 tempo osservato: Sereno Sereno 34 26 1016 vento: Nord O 18.5
30 Agosto 2026 18:30 tempo osservato: Sereno Sereno 34 24 1016 vento: Nord O 22.2
30 Agosto 2026 18:00 tempo osservato: Sereno Sereno 34 23 1016 vento: Nord O 22.2
30 Agosto 2026 17:30 tempo osservato: Sereno Sereno 34 28 1016 vento: Nord N 3.7
30 Agosto 2026 17:00 tempo osservato: Sereno Sereno 33 31 1016 vento: Nord O 13
30 Agosto 2026 16:30 tempo osservato: Sereno Sereno 33 33 1017 vento: Nord O 9.3
30 Agosto 2026 16:00 tempo osservato: Sereno Sereno 33 33 1017 vento: Nord O 11.1
30 Agosto 2026 15:30 tempo osservato: Sereno Sereno 33 33 1017 vento: Nord N 13
30 Agosto 2026 15:00 tempo osservato: Sereno Sereno 31 35 1018 vento: Nord O 11.1
30 Agosto 2026 14:30 tempo osservato: Sereno Sereno 31 35 1018 vento: Nord O 9.3
30 Agosto 2026 14:00 tempo osservato: Sereno Sereno 31 37 1018 vento: Nord NO 11.1
30 Agosto 2026 13:30 tempo osservato: Sereno Sereno 28 51 1019 vento: Nord O 9.3
30 Agosto 2026 13:00 tempo osservato: Sereno Sereno 28 48 1019 vento: Nord O/SO 13
30 Agosto 2026 12:30 tempo osservato: Sereno Sereno 26 54 1019 vento: Nord O 11.1
30 Agosto 2026 12:00 tempo osservato: Sereno Sereno 25 61 1019 vento: Nord O 9.3
30 Agosto 2026 11:30 tempo osservato: Sereno Sereno 24 64 1019 vento: Nord O 9.3
30 Agosto 2026 11:00 tempo osservato: Sereno Sereno 22 73 1019 vento: Nord O 11.1
30 Agosto 2026 10:30 tempo osservato: Poco Nuvoloso Poco Nuvoloso 21 77 1019 vento: Nord O 11.1
30 Agosto 2026 10:00 tempo osservato: Poco Nuvoloso Poco Nuvoloso 21 77 1019 vento: Nord O 13
30 Agosto 2026 09:30 tempo osservato: Poco Nuvoloso Poco Nuvoloso 19 88 1019 vento: Nord O 9.3
30 Agosto 2026 09:00 tempo osservato: Poco Nuvoloso Poco Nuvoloso 18 88 1019 vento: Nord SO 7.4
30 Agosto 2026 08:30 tempo osservato: Sereno Sereno 17 88 1018 vento: Nord S/SO 9.3
30 Agosto 2026 08:00 tempo osservato: Sereno Sereno 17 88 1018 vento: Nord O/SO 7.4